Time;durP1;ratioP1;P1;durP2;ratioP2;P2;SDS_P1;SDS_P2;PMS_P1;PMS_P2;Temp;Humidity;BMP_temperature;BMP_pressure;BME280_temperature;BME280_humidity;BME280_pressure;Samples;Min_cycle;Max_cycle;Signal;HPM_P1;HPM_P2
2021/12/31 00:00:49;;;;;;;9.93;1.70;;;12.90;99.90;;;;;;4949112;28;20617;-58
2021/12/31 00:03:16;;;;;;;3.55;1.77;;;12.80;99.90;;;;;;4950962;29;20552;-58
2021/12/31 00:05:43;;;;;;;5.63;1.85;;;12.80;99.90;;;;;;4949629;29;20031;-57
2021/12/31 00:08:09;;;;;;;6.20;2.10;;;12.80;99.90;;;;;;4949398;28;20023;-58
2021/12/31 00:10:35;;;;;;;8.07;1.40;;;12.80;99.90;;;;;;4952397;28;20039;-57
2021/12/31 00:13:01;;;;;;;6.22;2.53;;;12.80;99.90;;;;;;4947533;28;20039;-57
2021/12/31 00:15:27;;;;;;;3.35;1.50;;;12.80;99.90;;;;;;4945538;28;20038;-59
2021/12/31 00:17:54;;;;;;;3.85;1.60;;;12.70;99.90;;;;;;4967505;28;20078;-56
2021/12/31 00:20:25;;;;;;;8.15;1.73;;;12.70;99.90;;;;;;4951352;28;20490;-58
2021/12/31 00:25:31;;;;;;;6.82;1.63;;;12.60;99.90;;;;;;4951451;28;20027;-59
2021/12/31 00:27:58;;;;;;;5.72;1.88;;;12.60;99.90;;;;;;4950616;28;20098;-58
2021/12/31 00:30:27;;;;;;;6.90;1.85;;;12.60;99.90;;;;;;4951614;28;20059;-58
2021/12/31 00:32:59;;;;;;;6.35;2.88;;;12.60;99.90;;;;;;4951727;28;20448;-59
2021/12/31 00:35:24;;;;;;;4.07;1.67;;;12.60;99.90;;;;;;4948734;28;20027;-58
2021/12/31 00:37:50;;;;;;;1.90;1.15;;;12.70;99.90;;;;;;4954694;28;20094;-57
2021/12/31 00:40:19;;;;;;;4.80;1.58;;;12.60;99.90;;;;;;4949672;28;20019;-58
2021/12/31 00:42:45;;;;;;;3.97;1.77;;;12.60;99.90;;;;;;4950930;28;20031;-57
2021/12/31 00:45:14;;;;;;;4.40;1.40;;;12.60;99.90;;;;;;4950065;28;20035;-58
2021/12/31 00:47:41;;;;;;;4.10;1.52;;;12.60;99.90;;;;;;4952716;28;20054;-57
2021/12/31 00:50:08;;;;;;;3.90;1.40;;;12.60;99.90;;;;;;4952574;28;20031;-58
2021/12/31 00:52:34;;;;;;;4.28;1.60;;;12.60;99.90;;;;;;4944023;28;20031;-58
2021/12/31 00:55:00;;;;;;;4.07;1.58;;;12.60;99.90;;;;;;4934264;29;20444;-57
2021/12/31 00:57:26;;;;;;;3.95;1.50;;;12.60;99.90;;;;;;4939280;29;20086;-58
2021/12/31 00:59:53;;;;;;;4.70;1.60;;;12.60;99.90;;;;;;4926892;28;20094;-57
2021/12/31 01:02:21;;;;;;;3.45;1.83;;;12.60;99.90;;;;;;4944956;29;20081;-58
2021/12/31 01:04:47;;;;;;;4.70;1.58;;;12.50;99.90;;;;;;4938231;28;20023;-58
2021/12/31 01:07:13;;;;;;;7.75;1.70;;;12.50;99.90;;;;;;4941375;28;20119;-57
2021/12/31 01:09:38;;;;;;;3.40;1.35;;;12.50;99.90;;;;;;4943428;28;20050;-52
2021/12/31 01:12:07;;;;;;;5.82;1.33;;;12.50;99.90;;;;;;4945096;28;20454;-59
2021/12/31 01:14:37;;;;;;;4.55;1.50;;;12.60;99.90;;;;;;4959019;28;20429;-58
2021/12/31 01:17:08;;;;;;;6.72;1.55;;;12.50;99.90;;;;;;4956309;28;20152;-60
2021/12/31 01:19:50;;;;;;;4.55;1.30;;;12.50;99.90;;;;;;4949891;29;20114;-59
2021/12/31 01:22:23;;;;;;;7.50;1.70;;;12.50;99.90;;;;;;4949551;28;20031;-58
2021/12/31 01:24:48;;;;;;;5.65;1.52;;;12.50;99.90;;;;;;4948607;28;20031;-59
2021/12/31 01:27:14;;;;;;;9.23;1.80;;;12.50;99.90;;;;;;4940271;28;20122;-58
2021/12/31 01:29:41;;;;;;;3.22;1.33;;;12.50;99.90;;;;;;4943845;28;20039;-57
2021/12/31 01:32:07;;;;;;;11.30;2.70;;;12.50;99.90;;;;;;4949843;29;20027;-58
2021/12/31 01:34:33;;;;;;;3.55;1.30;;;12.50;99.90;;;;;;4953055;28;20039;-59
2021/12/31 01:36:59;;;;;;;6.22;1.85;;;12.50;99.90;;;;;;4927605;28;20015;-58
2021/12/31 01:39:28;;;;;;;3.60;1.67;;;12.50;99.90;;;;;;4940693;28;20032;-55
2021/12/31 01:41:57;;;;;;;4.07;1.58;;;12.50;99.90;;;;;;4945555;28;20031;-56
2021/12/31 01:44:33;;;;;;;4.35;1.33;;;12.60;99.90;;;;;;4940254;28;20039;-58
2021/12/31 01:47:04;;;;;;;4.18;1.15;;;12.50;99.90;;;;;;4948135;28;20074;-62
2021/12/31 01:49:35;;;;;;;6.32;1.58;;;12.50;99.90;;;;;;4948734;28;20035;-57
2021/12/31 01:52:04;;;;;;;6.07;1.33;;;12.50;99.90;;;;;;4944105;28;20037;-59
2021/12/31 01:54:31;;;;;;;3.45;1.73;;;12.50;99.90;;;;;;4941664;28;20036;-59
2021/12/31 01:57:00;;;;;;;5.57;1.23;;;12.50;99.90;;;;;;4943619;28;20507;-58
2021/12/31 01:59:26;;;;;;;4.22;1.50;;;12.50;99.90;;;;;;4943557;28;20505;-57
2021/12/31 02:01:53;;;;;;;2.15;1.30;;;12.40;99.90;;;;;;4949639;28;20400;-58
2021/12/31 02:04:23;;;;;;;4.63;1.55;;;12.40;99.90;;;;;;4944598;28;20122;-58
2021/12/31 02:06:49;;;;;;;3.80;1.60;;;12.40;99.90;;;;;;4945125;28;20118;-57
2021/12/31 02:09:19;;;;;;;3.35;1.30;;;12.40;99.90;;;;;;4942154;28;20487;-51
2021/12/31 02:11:45;;;;;;;4.03;2.03;;;12.40;99.90;;;;;;4949619;28;20024;-59
2021/12/31 02:14:11;;;;;;;5.20;1.40;;;12.40;99.90;;;;;;4943881;28;20526;-58
2021/12/31 02:16:37;;;;;;;4.55;1.25;;;12.40;99.90;;;;;;4951272;28;20032;-58
2021/12/31 02:19:13;;;;;;;4.65;1.27;;;12.40;99.90;;;;;;4940559;28;20052;-58
2021/12/31 02:21:46;;;;;;;8.93;1.52;;;12.40;99.90;;;;;;4948843;29;20027;-57
2021/12/31 02:24:13;;;;;;;3.08;1.85;;;12.40;99.90;;;;;;4952085;28;20695;-57
2021/12/31 02:26:40;;;;;;;6.88;1.75;;;12.40;99.90;;;;;;4951606;29;20042;-59
2021/12/31 02:29:06;;;;;;;6.00;1.67;;;12.40;99.90;;;;;;4951273;28;20046;-58
2021/12/31 02:31:33;;;;;;;3.40;1.30;;;12.50;99.90;;;;;;4944061;28;20023;-57
2021/12/31 02:34:02;;;;;;;5.10;1.80;;;12.50;99.90;;;;;;4946614;28;20063;-57
2021/12/31 02:36:28;;;;;;;7.70;2.00;;;12.50;99.90;;;;;;4951129;28;20394;-58
2021/12/31 02:38:54;;;;;;;5.32;1.67;;;12.50;99.90;;;;;;4953196;28;20023;-56
2021/12/31 02:41:21;;;;;;;8.68;1.83;;;12.50;99.90;;;;;;4949461;28;20939;-58
2021/12/31 02:43:53;;;;;;;5.93;1.73;;;12.50;99.90;;;;;;4948513;28;20038;-57
2021/12/31 02:46:22;;;;;;;6.43;2.15;;;12.40;99.90;;;;;;4952416;28;20079;-59
2021/12/31 02:48:55;;;;;;;8.38;2.10;;;12.40;99.90;;;;;;4953897;28;20127;-56
2021/12/31 02:51:23;;;;;;;9.77;1.77;;;12.40;99.90;;;;;;4951361;28;20031;-58
2021/12/31 02:53:53;;;;;;;11.30;1.92;;;12.40;99.90;;;;;;4953282;28;20054;-57
2021/12/31 02:56:20;;;;;;;3.80;1.33;;;12.40;99.90;;;;;;4965858;28;20379;-56
2021/12/31 02:58:47;;;;;;;4.70;1.58;;;12.50;99.90;;;;;;4965979;28;20370;-56
2021/12/31 03:01:17;;;;;;;6.82;1.90;;;12.50;99.90;;;;;;4944378;28;20035;-58
2021/12/31 03:03:48;;;;;;;5.35;2.38;;;12.40;99.90;;;;;;4936837;28;20084;-57
2021/12/31 03:06:17;;;;;;;7.15;2.10;;;12.40;99.90;;;;;;4952013;28;20073;-58
2021/12/31 03:08:48;;;;;;;5.68;1.50;;;12.40;99.90;;;;;;4953171;28;20106;-58
2021/12/31 03:11:18;;;;;;;8.10;1.90;;;12.40;99.90;;;;;;4951344;29;20083;-57
2021/12/31 03:13:49;;;;;;;4.10;1.63;;;12.40;99.90;;;;;;4939152;28;20063;-58
2021/12/31 03:16:21;;;;;;;6.70;1.73;;;12.40;99.90;;;;;;4947505;28;20019;-56
2021/12/31 03:18:52;;;;;;;6.13;1.75;;;12.40;99.90;;;;;;4945038;28;20016;-57
2021/12/31 03:21:22;;;;;;;4.93;2.20;;;12.40;99.90;;;;;;4951897;28;20109;-57
2021/12/31 03:23:54;;;;;;;5.47;1.73;;;12.40;99.90;;;;;;4953203;28;20031;-56
2021/12/31 03:26:21;;;;;;;6.72;1.65;;;12.40;99.90;;;;;;4950721;28;20047;-56
2021/12/31 03:28:48;;;;;;;3.95;1.73;;;12.40;99.90;;;;;;4950189;28;20437;-59
2021/12/31 03:31:14;;;;;;;9.20;1.80;;;12.40;99.90;;;;;;4944163;28;20027;-57
2021/12/31 03:33:40;;;;;;;3.47;1.90;;;12.40;99.90;;;;;;4952282;29;20097;-57
2021/12/31 03:36:06;;;;;;;3.70;1.83;;;12.50;99.90;;;;;;4951914;28;20016;-57
2021/12/31 03:38:32;;;;;;;11.32;3.15;;;12.40;99.90;;;;;;4952051;28;20099;-57
2021/12/31 03:40:58;;;;;;;9.15;2.10;;;12.40;99.90;;;;;;4955974;28;20092;-58
2021/12/31 03:43:28;;;;;;;4.25;1.75;;;12.40;99.90;;;;;;4961579;28;20038;-58
2021/12/31 03:45:54;;;;;;;3.20;1.90;;;12.40;99.90;;;;;;4935073;29;20043;-57
2021/12/31 03:48:21;;;;;;;3.53;1.40;;;12.40;99.90;;;;;;4951934;28;20047;-58
2021/12/31 03:50:47;;;;;;;4.43;1.70;;;12.40;99.90;;;;;;4966610;28;20126;-58
2021/12/31 03:53:14;;;;;;;7.57;2.25;;;12.40;99.90;;;;;;4967126;28;20043;-56
2021/12/31 03:55:41;;;;;;;2.67;1.80;;;12.40;99.90;;;;;;4950952;28;20651;-58
2021/12/31 03:58:08;;;;;;;6.00;1.83;;;12.40;99.90;;;;;;4951928;28;20027;-58
2021/12/31 04:00:37;;;;;;;9.57;2.38;;;12.40;99.90;;;;;;4952103;29;20038;-58
2021/12/31 04:03:08;;;;;;;9.93;1.95;;;12.40;99.90;;;;;;4952329;28;20062;-58
2021/12/31 04:05:35;;;;;;;5.80;1.88;;;12.30;99.90;;;;;;4951951;28;20054;-56
2021/12/31 04:08:01;;;;;;;6.97;2.00;;;12.30;99.90;;;;;;4951579;28;20405;-58
2021/12/31 04:10:28;;;;;;;3.75;2.05;;;12.30;99.90;;;;;;4951340;28;20023;-56
2021/12/31 04:12:55;;;;;;;5.75;1.52;;;12.30;99.90;;;;;;4949442;28;20042;-57
2021/12/31 04:15:21;;;;;;;4.38;1.80;;;12.30;99.90;;;;;;4953515;28;20106;-57
2021/12/31 04:17:47;;;;;;;4.93;1.95;;;12.30;99.90;;;;;;4949580;28;20027;-57
2021/12/31 04:20:21;;;;;;;8.43;2.00;;;12.30;99.90;;;;;;4951857;28;20035;-58
2021/12/31 04:22:56;;;;;;;7.82;1.92;;;12.30;99.90;;;;;;4950607;28;20031;-55
2021/12/31 04:25:22;;;;;;;8.55;2.08;;;12.30;99.90;;;;;;4950985;29;20501;-56
2021/12/31 04:27:48;;;;;;;4.43;1.83;;;12.30;99.90;;;;;;4950486;28;20469;-57
2021/12/31 04:30:14;;;;;;;4.82;1.90;;;12.30;99.90;;;;;;4951970;28;20087;-57
2021/12/31 04:32:42;;;;;;;4.20;1.50;;;12.30;99.90;;;;;;4950777;28;20511;-56
2021/12/31 04:35:11;;;;;;;4.32;1.92;;;12.30;99.90;;;;;;4951142;28;20015;-57
2021/12/31 04:37:39;;;;;;;3.55;1.60;;;12.30;99.90;;;;;;4949817;28;20425;-56
2021/12/31 04:40:08;;;;;;;5.03;1.70;;;12.30;99.90;;;;;;4950196;28;20031;-58
2021/12/31 04:42:34;;;;;;;6.38;2.10;;;12.20;99.90;;;;;;4953923;28;20038;-57
2021/12/31 04:44:59;;;;;;;5.07;2.03;;;12.20;99.90;;;;;;4954945;28;20027;-57
2021/12/31 04:47:28;;;;;;;8.30;1.70;;;12.10;99.90;;;;;;4954431;28;20122;-58
2021/12/31 04:49:54;;;;;;;5.70;1.98;;;12.20;99.90;;;;;;4954791;28;20133;-56
2021/12/31 04:52:20;;;;;;;4.68;2.28;;;12.10;99.90;;;;;;4954444;28;20507;-57
2021/12/31 04:54:46;;;;;;;8.30;2.00;;;12.00;99.90;;;;;;4954511;28;20037;-57
2021/12/31 04:57:11;;;;;;;6.38;2.20;;;12.00;99.90;;;;;;4953303;29;20027;-54
2021/12/31 04:59:37;;;;;;;4.95;1.67;;;12.00;99.90;;;;;;4954810;28;20028;-57
2021/12/31 05:02:03;;;;;;;5.32;2.13;;;12.00;99.90;;;;;;4954840;28;20031;-55
2021/12/31 05:04:29;;;;;;;5.60;2.17;;;12.00;99.90;;;;;;4955081;28;20524;-56
2021/12/31 05:06:55;;;;;;;6.95;1.75;;;11.90;99.90;;;;;;4954850;28;20027;-57
2021/12/31 05:09:21;;;;;;;4.97;1.70;;;11.90;99.90;;;;;;4954223;28;20035;-56
2021/12/31 05:11:46;;;;;;;3.53;1.65;;;11.90;99.90;;;;;;4954377;29;20113;-57
2021/12/31 05:14:12;;;;;;;6.43;1.88;;;11.90;99.90;;;;;;4953706;28;20510;-57
2021/12/31 05:16:38;;;;;;;3.30;1.48;;;11.90;99.90;;;;;;4954155;28;20390;-56
2021/12/31 05:19:05;;;;;;;6.40;1.70;;;11.90;99.90;;;;;;4954951;28;20038;-56
2021/12/31 05:21:31;;;;;;;5.95;1.60;;;11.90;99.90;;;;;;4953646;28;20035;-58
2021/12/31 05:23:58;;;;;;;3.30;1.80;;;11.90;99.90;;;;;;4948652;28;20039;-57
2021/12/31 05:26:25;;;;;;;5.38;1.77;;;11.90;99.90;;;;;;4951911;29;20042;-58
2021/12/31 05:28:51;;;;;;;5.05;1.75;;;11.80;99.90;;;;;;4954379;29;20027;-56
2021/12/31 05:31:17;;;;;;;3.47;1.67;;;11.80;99.90;;;;;;4953790;28;20419;-55
2021/12/31 05:33:42;;;;;;;5.10;1.85;;;11.70;99.90;;;;;;4954097;28;20038;-57
2021/12/31 05:36:08;;;;;;;3.72;1.70;;;11.70;99.90;;;;;;4953764;28;20090;-58
2021/12/31 05:38:34;;;;;;;5.38;1.85;;;11.70;99.90;;;;;;4953562;28;20023;-56
2021/12/31 05:41:00;;;;;;;5.05;2.25;;;11.70;99.90;;;;;;4953642;28;20043;-59
2021/12/31 05:43:26;;;;;;;4.95;2.10;;;11.70;99.90;;;;;;4953246;28;20114;-57
2021/12/31 05:45:52;;;;;;;6.40;2.13;;;11.70;99.90;;;;;;4953504;29;20027;-57
2021/12/31 05:48:18;;;;;;;6.88;1.80;;;11.70;99.90;;;;;;4953956;29;20027;-58
2021/12/31 05:50:43;;;;;;;8.27;2.10;;;11.70;99.90;;;;;;4951594;28;20062;-57
2021/12/31 05:53:10;;;;;;;7.25;2.00;;;11.70;99.90;;;;;;4951971;28;20035;-57
2021/12/31 05:55:35;;;;;;;5.43;2.65;;;11.70;99.90;;;;;;4953911;28;20031;-57
2021/12/31 05:58:02;;;;;;;5.22;2.15;;;11.70;99.90;;;;;;4953670;28;20489;-57
2021/12/31 06:00:29;;;;;;;6.78;1.83;;;11.80;99.90;;;;;;4953677;28;20046;-57
2021/12/31 06:02:57;;;;;;;3.80;1.63;;;11.70;99.90;;;;;;4953257;28;20110;-57
2021/12/31 06:05:25;;;;;;;9.05;2.33;;;11.80;99.90;;;;;;4953950;28;20034;-57
2021/12/31 06:07:55;;;;;;;7.72;2.08;;;11.80;99.90;;;;;;4953619;28;20750;-58
2021/12/31 06:10:22;;;;;;;5.35;1.58;;;11.70;99.90;;;;;;4953823;28;20043;-57
2021/12/31 06:12:55;;;;;;;4.90;1.80;;;11.70;99.90;;;;;;4953200;28;20035;-58
2021/12/31 06:15:21;;;;;;;8.45;1.92;;;11.80;99.90;;;;;;4953947;28;20413;-56
2021/12/31 06:17:47;;;;;;;5.38;1.90;;;11.80;99.90;;;;;;4951762;28;20042;-56
2021/12/31 06:20:13;;;;;;;4.47;1.80;;;11.80;99.90;;;;;;4953123;28;20027;-56
2021/12/31 06:22:39;;;;;;;3.78;1.92;;;11.80;99.90;;;;;;4952466;28;20437;-57
2021/12/31 06:25:05;;;;;;;7.88;2.45;;;11.80;99.90;;;;;;4953701;28;20039;-56
2021/12/31 06:27:31;;;;;;;4.13;1.80;;;11.80;99.90;;;;;;4952441;28;20109;-57
2021/12/31 06:29:57;;;;;;;7.30;1.95;;;11.80;99.90;;;;;;4955098;28;20545;-57
2021/12/31 06:32:22;;;;;;;9.88;2.40;;;11.80;99.90;;;;;;4958882;28;20041;-58
2021/12/31 06:34:48;;;;;;;5.40;1.80;;;11.80;99.90;;;;;;4953491;28;20058;-56
2021/12/31 06:37:14;;;;;;;6.65;2.40;;;11.80;99.90;;;;;;4952718;28;20429;-58
2021/12/31 06:39:42;;;;;;;6.10;2.30;;;11.70;99.90;;;;;;4953282;28;20043;-56
2021/12/31 06:42:08;;;;;;;4.40;2.20;;;11.70;99.90;;;;;;4952435;28;20035;-58
2021/12/31 06:44:35;;;;;;;3.08;1.90;;;11.70;99.90;;;;;;4952674;28;20033;-56
2021/12/31 06:47:03;;;;;;;11.85;2.03;;;11.70;99.90;;;;;;4951487;28;20496;-57
2021/12/31 06:49:29;;;;;;;6.35;2.10;;;11.70;99.90;;;;;;4952758;28;20100;-57
2021/12/31 06:51:55;;;;;;;5.97;1.90;;;11.80;99.90;;;;;;4951418;29;20031;-57
2021/12/31 06:54:21;;;;;;;5.55;1.85;;;11.80;99.90;;;;;;4950651;28;20091;-56
2021/12/31 06:56:47;;;;;;;9.25;4.68;;;11.80;99.90;;;;;;4951335;28;20497;-57
2021/12/31 06:59:12;;;;;;;13.45;5.43;;;11.80;99.90;;;;;;4951166;28;20485;-55
2021/12/31 07:01:38;;;;;;;12.32;4.05;;;11.70;99.90;;;;;;4952030;28;20065;-58
2021/12/31 07:04:04;;;;;;;4.28;1.77;;;11.70;99.90;;;;;;4952152;28;20034;-58
2021/12/31 07:06:31;;;;;;;10.02;2.47;;;11.70;99.90;;;;;;4951554;28;20485;-58
2021/12/31 07:08:57;;;;;;;5.38;1.73;;;11.70;99.90;;;;;;4951834;28;20111;-59
2021/12/31 07:11:22;;;;;;;8.23;2.13;;;11.70;99.90;;;;;;4951569;28;20122;-57
2021/12/31 07:13:49;;;;;;;12.27;5.25;;;11.70;99.90;;;;;;4952244;29;20043;-57
2021/12/31 07:16:15;;;;;;;12.40;4.57;;;11.70;99.90;;;;;;4950637;28;20063;-58
2021/12/31 07:18:41;;;;;;;8.55;4.30;;;11.70;99.90;;;;;;4952816;29;20055;-58
2021/12/31 07:21:07;;;;;;;9.23;3.47;;;11.70;99.90;;;;;;4958061;28;20110;-56
2021/12/31 07:23:33;;;;;;;8.55;3.22;;;11.60;99.90;;;;;;4952206;29;20031;-57
2021/12/31 07:25:59;;;;;;;7.88;2.95;;;11.50;99.90;;;;;;4951594;28;20051;-57
2021/12/31 07:28:24;;;;;;;7.70;3.25;;;11.50;99.90;;;;;;4952231;28;20038;-57
2021/12/31 07:30:50;;;;;;;18.42;6.47;;;11.40;99.90;;;;;;4950373;29;20039;-57
2021/12/31 07:33:24;;;;;;;6.68;3.63;;;11.30;99.90;;;;;;4951677;29;20031;-57
2021/12/31 07:35:51;;;;;;;27.90;9.95;;;11.20;99.90;;;;;;4946419;28;20031;-56
2021/12/31 07:38:24;;;;;;;28.08;10.32;;;11.10;99.90;;;;;;4955624;28;20034;-57
2021/12/31 07:40:51;;;;;;;20.25;8.35;;;11.00;99.90;;;;;;4951658;28;20035;-56
2021/12/31 07:43:22;;;;;;;22.23;10.57;;;11.00;99.90;;;;;;4951618;28;20409;-56
2021/12/31 07:45:52;;;;;;;37.13;22.15;;;10.90;99.90;;;;;;4947934;28;20390;-58
2021/12/31 07:48:19;;;;;;;21.75;12.88;;;10.90;99.90;;;;;;4949437;28;20038;-57
2021/12/31 07:50:45;;;;;;;39.00;23.02;;;10.90;99.90;;;;;;4950541;28;20411;-55
2021/12/31 07:53:11;;;;;;;32.45;21.48;;;10.80;99.90;;;;;;4951558;28;20497;-57
2021/12/31 07:55:37;;;;;;;29.92;20.52;;;10.80;99.90;;;;;;4951343;28;20038;-57
2021/12/31 07:58:05;;;;;;;28.05;18.80;;;10.80;99.90;;;;;;4938761;28;20027;-57
2021/12/31 08:00:31;;;;;;;19.08;12.70;;;10.80;99.90;;;;;;4948573;28;20030;-57
2021/12/31 08:02:58;;;;;;;24.88;16.13;;;10.80;99.90;;;;;;4951401;28;20051;-58
2021/12/31 08:05:29;;;;;;;14.13;7.65;;;10.90;99.90;;;;;;4949869;28;20055;-57
2021/12/31 08:07:55;;;;;;;10.02;4.20;;;10.90;99.90;;;;;;4950037;23;20833;-60
2021/12/31 08:10:21;;;;;;;7.65;3.55;;;11.00;99.90;;;;;;5005705;28;20093;-61
2021/12/31 08:12:47;;;;;;;4.90;2.83;;;11.10;99.90;;;;;;5005345;28;20109;-59
2021/12/31 08:15:14;;;;;;;5.00;2.47;;;11.20;99.90;;;;;;5000208;28;20028;-59
2021/12/31 08:17:40;;;;;;;6.57;3.60;;;11.20;99.90;;;;;;4995294;28;20029;-60
2021/12/31 08:20:06;;;;;;;6.15;3.53;;;11.30;99.90;;;;;;4987760;28;20157;-59
2021/12/31 08:22:32;;;;;;;7.75;2.80;;;11.30;99.90;;;;;;4992479;28;20113;-60
2021/12/31 08:24:58;;;;;;;14.32;7.47;;;11.40;99.90;;;;;;4995846;28;20105;-60
2021/12/31 08:27:23;;;;;;;19.38;9.82;;;11.40;99.90;;;;;;4991202;28;20037;-64
2021/12/31 08:29:49;;;;;;;20.20;12.70;;;11.50;99.90;;;;;;4992658;28;20535;-59
2021/12/31 08:32:15;;;;;;;10.23;4.90;;;11.60;99.90;;;;;;4989444;28;20042;-59
2021/12/31 08:34:40;;;;;;;19.20;7.60;;;11.60;99.90;;;;;;4982334;28;20026;-60
2021/12/31 08:37:06;;;;;;;4.45;2.25;;;11.70;99.90;;;;;;4988682;28;20772;-60
2021/12/31 08:39:32;;;;;;;4.90;2.47;;;11.80;99.90;;;;;;4979435;28;20085;-60
2021/12/31 08:42:00;;;;;;;10.60;3.30;;;11.90;99.90;;;;;;4986657;28;20031;-66
2021/12/31 08:44:25;;;;;;;4.20;2.10;;;12.00;99.90;;;;;;4988194;28;20054;-60
2021/12/31 08:46:51;;;;;;;4.72;2.38;;;12.00;99.90;;;;;;4985891;28;20073;-59
2021/12/31 08:49:20;;;;;;;7.78;3.33;;;12.10;99.90;;;;;;4989436;28;20046;-58
2021/12/31 08:51:46;;;;;;;11.70;4.22;;;12.10;99.90;;;;;;4984840;28;20044;-58
2021/12/31 08:54:12;;;;;;;9.93;4.10;;;12.10;99.90;;;;;;4982478;28;20037;-59
2021/12/31 08:56:37;;;;;;;7.60;4.63;;;12.10;99.90;;;;;;4982586;28;20035;-60
2021/12/31 08:59:05;;;;;;;5.55;3.33;;;12.10;99.90;;;;;;4985637;28;20026;-60
2021/12/31 09:01:31;;;;;;;5.68;3.03;;;12.10;99.90;;;;;;4988890;28;20103;-57
2021/12/31 09:03:57;;;;;;;3.83;1.90;;;12.10;99.90;;;;;;4988614;28;20400;-59
2021/12/31 09:06:22;;;;;;;5.63;2.05;;;12.10;99.90;;;;;;4987299;28;20030;-59
2021/12/31 09:08:51;;;;;;;2.60;1.95;;;12.10;99.90;;;;;;4989826;28;20049;-60
2021/12/31 09:11:17;;;;;;;4.43;2.80;;;12.10;99.90;;;;;;4989272;28;20072;-61
2021/12/31 09:13:43;;;;;;;7.30;2.78;;;12.10;99.90;;;;;;4987842;28;20034;-58
2021/12/31 09:16:13;;;;;;;10.80;6.07;;;12.10;99.90;;;;;;4988960;28;20030;-60
2021/12/31 09:18:38;;;;;;;10.07;4.75;;;12.10;99.90;;;;;;4989246;28;20556;-59
2021/12/31 09:21:05;;;;;;;8.50;5.15;;;12.10;99.90;;;;;;4988458;28;20129;-60
2021/12/31 09:23:33;;;;;;;6.95;3.42;;;12.10;99.90;;;;;;4988725;28;20034;-59
2021/12/31 09:26:01;;;;;;;6.35;3.38;;;12.10;99.90;;;;;;4987963;28;20042;-60
2021/12/31 09:28:26;;;;;;;8.88;4.90;;;12.10;99.90;;;;;;4981121;28;20496;-60
2021/12/31 09:30:52;;;;;;;14.52;8.73;;;12.10;99.90;;;;;;4990704;28;20031;-60
2021/12/31 09:33:18;;;;;;;7.95;4.25;;;12.20;99.90;;;;;;4989453;28;20026;-59
2021/12/31 09:35:44;;;;;;;5.28;3.05;;;12.20;99.90;;;;;;4992479;28;20030;-59
2021/12/31 09:38:09;;;;;;;4.85;3.67;;;12.30;99.90;;;;;;4986865;28;20400;-60
2021/12/31 09:40:39;;;;;;;9.25;4.18;;;12.30;99.90;;;;;;4989049;28;20041;-60
2021/12/31 09:43:12;;;;;;;11.32;5.45;;;12.40;99.90;;;;;;4989759;28;20037;-59
2021/12/31 09:45:45;;;;;;;5.47;2.20;;;12.40;99.90;;;;;;4988191;28;20038;-60
2021/12/31 09:48:16;;;;;;;8.25;2.75;;;12.40;99.90;;;;;;4981112;28;20034;-60
2021/12/31 09:50:47;;;;;;;6.07;2.78;;;12.60;99.90;;;;;;4991778;28;20034;-60
2021/12/31 09:53:14;;;;;;;8.23;3.03;;;12.60;99.90;;;;;;4992142;28;20031;-61
2021/12/31 09:55:54;;;;;;;4.97;2.28;;;12.60;99.90;;;;;;4990465;28;20046;-60
2021/12/31 09:58:23;;;;;;;6.43;4.60;;;12.60;99.90;;;;;;4991566;28;20113;-60
2021/12/31 10:00:50;;;;;;;8.63;2.88;;;12.60;99.90;;;;;;4992179;28;20029;-60
2021/12/31 10:03:25;;;;;;;3.10;1.58;;;12.60;99.90;;;;;;4989165;28;20065;-60
2021/12/31 10:05:55;;;;;;;6.07;2.88;;;12.60;99.90;;;;;;4990859;28;20038;-61
2021/12/31 10:08:38;;;;;;;3.38;2.10;;;12.60;99.90;;;;;;4988945;28;20034;-60
2021/12/31 10:11:17;;;;;;;4.88;1.70;;;12.60;99.90;;;;;;4991126;28;20467;-60
2021/12/31 10:14:05;;;;;;;4.53;1.80;;;12.70;99.90;;;;;;4985105;28;20107;-60
2021/12/31 10:16:36;;;;;;;4.57;1.73;;;12.70;99.90;;;;;;4988388;28;20046;-60
2021/12/31 10:19:13;;;;;;;2.92;1.23;;;12.60;99.90;;;;;;4991353;28;20030;-60
2021/12/31 10:21:46;;;;;;;2.70;1.85;;;12.60;99.90;;;;;;4991678;28;20084;-60
2021/12/31 10:24:39;;;;;;;3.47;1.70;;;12.60;99.90;;;;;;4988909;28;20573;-60
2021/12/31 10:27:14;;;;;;;2.13;1.33;;;12.60;99.90;;;;;;4990092;28;20030;-60
2021/12/31 10:30:06;;;;;;;4.00;1.63;;;12.60;99.90;;;;;;4991654;28;20447;-62
2021/12/31 10:32:36;;;;;;;2.75;1.65;;;12.60;99.90;;;;;;4990228;28;20038;-60
2021/12/31 10:35:19;;;;;;;2.80;1.73;;;12.70;99.90;;;;;;4986651;28;20583;-59
2021/12/31 10:37:50;;;;;;;3.72;1.75;;;12.70;99.90;;;;;;5001859;28;20061;-60
2021/12/31 10:40:32;;;;;;;3.83;1.63;;;12.80;99.90;;;;;;4986857;28;20041;-60
2021/12/31 10:43:10;;;;;;;3.80;1.55;;;12.80;99.90;;;;;;4989269;28;20030;-59
2021/12/31 10:45:37;;;;;;;5.95;1.58;;;12.90;99.90;;;;;;4991217;28;20034;-60
2021/12/31 10:48:08;;;;;;;4.50;1.30;;;13.00;99.90;;;;;;4990952;28;20026;-60
2021/12/31 10:50:35;;;;;;;3.10;1.30;;;13.10;99.90;;;;;;4990990;28;20026;-60
2021/12/31 10:53:23;;;;;;;2.50;1.08;;;13.20;99.90;;;;;;4970570;28;20042;-59
2021/12/31 10:55:47;;;;;;;2.30;1.20;;;13.30;99.90;;;;;;4983361;28;20035;-60
2021/12/31 10:58:14;;;;;;;3.08;1.38;;;13.40;99.90;;;;;;4989321;28;20081;-59
2021/12/31 11:00:43;;;;;;;2.92;1.67;;;13.50;99.90;;;;;;5004968;28;20049;-60
2021/12/31 11:03:09;;;;;;;4.15;1.35;;;13.60;99.90;;;;;;4989621;28;20030;-60
2021/12/31 11:05:35;;;;;;;3.72;1.02;;;13.60;99.90;;;;;;4990693;28;20534;-60
2021/12/31 11:08:03;;;;;;;2.55;1.20;;;13.70;99.90;;;;;;4991218;28;20117;-60
2021/12/31 11:10:33;;;;;;;2.47;1.20;;;13.70;99.90;;;;;;4990245;28;20087;-60
2021/12/31 11:13:03;;;;;;;3.92;0.95;;;13.60;99.90;;;;;;4975589;28;20034;-60
2021/12/31 11:15:29;;;;;;;8.77;4.10;;;13.80;99.90;;;;;;4974788;28;20030;-60
2021/12/31 11:17:54;;;;;;;8.82;5.00;;;13.80;99.90;;;;;;4989163;28;20105;-60
2021/12/31 11:20:22;;;;;;;6.68;4.05;;;13.80;99.90;;;;;;4980084;28;20489;-60
2021/12/31 11:22:51;;;;;;;26.50;17.52;;;13.80;99.90;;;;;;4980315;28;20030;-59
2021/12/31 11:25:17;;;;;;;14.40;9.35;;;13.80;99.90;;;;;;4990896;28;20168;-60
2021/12/31 11:27:45;;;;;;;16.83;9.20;;;13.80;99.90;;;;;;4989898;28;20109;-60
2021/12/31 11:30:26;;;;;;;13.80;8.48;;;13.80;99.90;;;;;;4989254;28;20084;-60
2021/12/31 11:32:58;;;;;;;11.10;7.35;;;13.70;99.90;;;;;;4990754;28;20062;-60
2021/12/31 11:35:38;;;;;;;12.45;7.30;;;13.70;99.90;;;;;;4988683;28;20425;-59
2021/12/31 11:38:28;;;;;;;17.20;7.65;;;13.60;99.90;;;;;;4987869;28;20436;-59
2021/12/31 11:41:11;;;;;;;11.38;5.93;;;13.40;99.90;;;;;;4972121;28;20038;-60
2021/12/31 11:43:42;;;;;;;7.28;4.20;;;13.30;99.90;;;;;;4987285;28;20066;-60
2021/12/31 11:46:11;;;;;;;9.70;5.07;;;13.30;99.90;;;;;;4990046;28;20085;-59
2021/12/31 11:48:48;;;;;;;11.57;4.25;;;13.30;99.90;;;;;;4990441;28;20057;-60
2021/12/31 11:51:16;;;;;;;16.15;8.32;;;13.20;99.90;;;;;;4984227;28;20030;-59
2021/12/31 11:54:04;;;;;;;15.95;9.40;;;13.20;99.90;;;;;;4990028;28;20034;-59
2021/12/31 11:56:33;;;;;;;23.70;13.98;;;13.20;99.90;;;;;;4986492;28;20037;-59
2021/12/31 11:59:24;;;;;;;30.27;15.32;;;13.10;99.90;;;;;;4989718;28;20030;-60
2021/12/31 12:01:51;;;;;;;27.13;14.23;;;13.10;99.90;;;;;;4983201;28;20053;-60
2021/12/31 12:04:23;;;;;;;17.90;10.07;;;13.00;99.90;;;;;;4980726;28;20498;-60
2021/12/31 12:07:30;;;;;;;16.92;8.05;;;13.00;99.90;;;;;;4986925;28;20475;-60
2021/12/31 12:09:55;;;;;;;5.72;2.95;;;12.90;99.90;;;;;;4989145;28;20026;-60
2021/12/31 12:12:21;;;;;;;4.13;2.60;;;12.90;99.90;;;;;;4986455;28;20028;-59
2021/12/31 12:14:48;;;;;;;11.98;7.80;;;12.90;99.90;;;;;;4989977;28;20038;-60
2021/12/31 12:17:37;;;;;;;22.13;12.93;;;12.90;99.90;;;;;;4989262;28;20022;-60
2021/12/31 12:20:03;;;;;;;37.28;20.80;;;12.90;99.90;;;;;;4988535;28;20084;-61
2021/12/31 12:22:34;;;;;;;33.67;17.10;;;12.90;99.90;;;;;;4989093;28;20026;-60
2021/12/31 12:25:05;;;;;;;25.85;15.32;;;13.00;99.90;;;;;;5002497;28;20041;-60
2021/12/31 12:27:31;;;;;;;20.77;11.65;;;13.00;99.90;;;;;;4986902;28;20034;-60
2021/12/31 12:29:57;;;;;;;20.08;12.25;;;13.10;99.90;;;;;;4982969;28;22079;-60
2021/12/31 12:34:57;;;;;;;38.65;20.88;;;13.30;99.90;;;;;;4988451;28;20443;-59
2021/12/31 12:37:31;;;;;;;18.92;9.38;;;13.40;99.90;;;;;;4987860;28;20019;-56
2021/12/31 12:40:02;;;;;;;18.77;10.45;;;13.50;99.90;;;;;;4985099;28;20101;-60
2021/12/31 12:42:27;;;;;;;33.55;17.73;;;13.50;99.90;;;;;;4988879;28;20056;-60
2021/12/31 12:45:07;;;;;;;15.48;9.00;;;13.60;99.90;;;;;;4987579;28;20109;-60
2021/12/31 12:47:36;;;;;;;12.68;6.43;;;13.60;99.90;;;;;;4986565;28;20119;-60
2021/12/31 12:50:08;;;;;;;16.45;10.27;;;13.50;99.90;;;;;;4975393;28;20037;-60
2021/12/31 12:52:34;;;;;;;28.30;18.00;;;13.50;99.90;;;;;;4983674;28;20062;-60
2021/12/31 12:55:14;;;;;;;28.00;18.15;;;13.40;99.90;;;;;;4990377;28;20030;-60